Victory City, Texas
Current Conditions -  °F | °C
As of 9:53 AM on Tuesday 21 Oct 2014 (Local Time) from KTXK Reporting Station
Clear Clear  
Wind Chill: 70°   Ceiling: Unl
Heat Index: 70°   Visibility: 10mi
Dew Point: 57°   Wind: 0mph
Humidity: 63%   Direction: NA
Pressure: 30.13"   Gusts: NA
Location:  33.474°N, 94.2882°W
Report Text: KTXK 211453Z 00000KT 10SM CLR 21/14 A3013 RMK AO2 SLP199 T02110139 53013
Loading
Personal Weather Stations






























Interactive Weather Map New forecast layout! Learn more

10-Day Weather Forecast

Advertisements
Track Severe Weather on mobile